TimeCDT,TemperatureF,Dew PointF,Humidity,Sea Level PressureIn,VisibilityMPH,Wind Direction,Wind SpeedMPH,Gust SpeedMPH,PrecipitationIn,Events,Conditions,WindDirDegrees,DateUTC
12:54 AM,72.0,70.0,93,30.21,10.0,East,5.8,-,N/A,,Clear,100,2013-07-16 05:54:00
1:54 AM,72.0,70.0,93,30.20,10.0,SE,4.6,-,N/A,,Clear,130,2013-07-16 06:54:00
2:54 AM,72.0,70.0,93,30.21,10.0,SE,5.8,-,N/A,,Mostly Cloudy,130,2013-07-16 07:54:00
3:54 AM,72.0,70.0,93,30.21,7.0,SE,5.8,-,N/A,,Clear,140,2013-07-16 08:54:00
4:54 AM,72.0,70.0,93,30.22,5.0,East,5.8,-,N/A,,Clear,100,2013-07-16 09:54:00
5:54 AM,72.0,71.1,97,30.24,6.0,ESE,5.8,-,N/A,,Clear,110,2013-07-16 10:54:00
6:54 AM,73.0,71.1,93,30.25,6.0,ESE,6.9,-,N/A,,Clear,120,2013-07-16 11:54:00
7:54 AM,75.0,73.0,94,30.27,10.0,SE,6.9,-,N/A,,Clear,140,2013-07-16 12:54:00
8:22 AM,75.9,73.0,91,30.30,10.0,SSE,10.4,-,N/A,,Partly Cloudy,160,2013-07-16 13:22:00
8:51 AM,78.8,73.4,83,30.30,10.0,SE,8.1,-,N/A,,Mostly Cloudy,140,2013-07-16 13:51:00
8:54 AM,77.0,73.0,88,30.28,10.0,SSE,8.1,-,N/A,,Mostly Cloudy,150,2013-07-16 13:54:00
9:12 AM,78.1,73.9,87,30.30,10.0,SSE,6.9,-,N/A,,Overcast,150,2013-07-16 14:12:00
9:54 AM,79.0,73.0,82,30.28,10.0,SSE,5.8,-,N/A,,Scattered Clouds,160,2013-07-16 14:54:00
10:54 AM,82.0,73.9,76,30.28,10.0,SSW,8.1,-,N/A,,Partly Cloudy,200,2013-07-16 15:54:00
11:54 AM,84.0,73.0,69,30.28,10.0,South,8.1,-,N/A,,Partly Cloudy,170,2013-07-16 16:54:00
12:54 PM,87.1,72.0,61,30.27,10.0,Variable,4.6,-,N/A,,Scattered Clouds,0,2013-07-16 17:54:00
1:54 PM,88.0,72.0,59,30.25,10.0,SE,6.9,-,N/A,,Partly Cloudy,140,2013-07-16 18:54:00
2:54 PM,89.1,72.0,57,30.25,10.0,ESE,6.9,-,N/A,,Mostly Cloudy,120,2013-07-16 19:54:00
3:54 PM,90.0,71.1,54,30.23,10.0,SE,5.8,-,N/A,,Clear,130,2013-07-16 20:54:00
4:54 PM,90.0,70.0,52,30.22,10.0,SE,8.1,-,N/A,,Clear,140,2013-07-16 21:54:00
5:54 PM,89.1,71.1,55,30.22,10.0,SE,8.1,-,N/A,,Clear,140,2013-07-16 22:54:00
6:54 PM,87.1,71.1,59,30.22,10.0,SE,6.9,-,N/A,,Clear,130,2013-07-16 23:54:00
7:54 PM,84.9,73.0,67,30.23,10.0,ESE,3.5,-,N/A,,Clear,120,2013-07-17 00:54:00
8:54 PM,82.0,72.0,71,30.24,10.0,ESE,5.8,-,N/A,,Clear,120,2013-07-17 01:54:00
9:54 PM,81.0,72.0,74,30.26,10.0,ESE,4.6,-,N/A,,Clear,120,2013-07-17 02:54:00
10:54 PM,79.0,72.0,79,30.27,10.0,ESE,6.9,-,N/A,,Clear,120,2013-07-17 03:54:00
11:54 PM,79.0,72.0,79,30.28,10.0,SE,6.9,-,N/A,,Clear,130,2013-07-17 04:54:00